Time;durP1;ratioP1;P1;durP2;ratioP2;P2;SDS_P1;SDS_P2;PMS_P1;PMS_P2;Temp;Humidity;BMP_temperature;BMP_pressure;BME280_temperature;BME280_humidity;BME280_pressure;Samples;Min_cycle;Max_cycle;Signal;HPM_P1;HPM_P2
2021/01/07 00:00:18;;;;;;;14.73;8.20;;;;;;;;;;4837104;29;20258;-87
2021/01/07 00:02:45;;;;;;;8.00;6.75;;;;;;;;;;4839674;29;20300;-86
2021/01/07 00:05:13;;;;;;;7.68;6.38;;;;;;;;;;4833380;29;20205;-84
2021/01/07 00:07:40;;;;;;;10.15;7.68;;;;;;;;;;4827894;29;20481;-85
2021/01/07 00:10:08;;;;;;;10.43;7.70;;;;;;;;;;4828408;29;20214;-86
2021/01/07 00:12:35;;;;;;;8.57;6.65;;;;;;;;;;4828569;29;20206;-86
2021/01/07 00:15:02;;;;;;;7.82;6.80;;;;;;;;;;4828326;29;20201;-85
2021/01/07 00:17:30;;;;;;;8.10;7.30;;;;;;;;;;4827746;29;20209;-86
2021/01/07 00:19:57;;;;;;;7.75;6.25;;;;;;;;;;4828142;29;20202;-85
2021/01/07 00:22:24;;;;;;;8.10;6.57;;;;;;;;;;4828732;29;20604;-85
2021/01/07 00:24:51;;;;;;;7.55;6.45;;;;;;;;;;4828237;29;20533;-85
2021/01/07 00:27:18;;;;;;;7.60;6.15;;;;;;;;;;4827795;29;20258;-84
2021/01/07 00:29:45;;;;;;;8.07;5.97;;;;;;;;;;4828532;29;20202;-88
2021/01/07 00:32:12;;;;;;;8.50;6.75;;;;;;;;;;4828227;29;20244;-88
2021/01/07 00:34:39;;;;;;;7.95;6.95;;;;;;;;;;4828972;29;20236;-88
2021/01/07 00:37:06;;;;;;;8.65;7.75;;;;;;;;;;4782685;29;20599;-89
2021/01/07 00:39:33;;;;;;;8.32;7.10;;;;;;;;;;4828482;29;20214;-86
2021/01/07 00:42:01;;;;;;;7.28;6.28;;;;;;;;;;4830894;29;20210;-86
2021/01/07 00:44:28;;;;;;;7.50;6.68;;;;;;;;;;4831620;29;20194;-86
2021/01/07 00:46:56;;;;;;;7.88;6.60;;;;;;;;;;4831643;29;20204;-87
2021/01/07 00:49:23;;;;;;;7.78;6.18;;;;;;;;;;4831405;29;20189;-85
2021/01/07 00:51:50;;;;;;;6.53;5.22;;;;;;;;;;4785836;29;20212;-86
2021/01/07 00:54:18;;;;;;;6.35;5.70;;;;;;;;;;4831520;29;20208;-86
2021/01/07 00:56:46;;;;;;;6.05;5.40;;;;;;;;;;4831429;29;20202;-87
2021/01/07 00:59:13;;;;;;;6.65;5.53;;;;;;;;;;4831077;29;20225;-86
2021/01/07 01:01:44;;;;;;;7.78;6.55;;;;;;;;;;4831170;29;20226;-86
2021/01/07 01:04:11;;;;;;;6.72;5.90;;;;;;;;;;4830756;29;20217;-86
2021/01/07 01:06:38;;;;;;;6.82;6.13;;;;;;;;;;4831043;29;20605;-85
2021/01/07 01:09:08;;;;;;;7.53;6.72;;;;;;;;;;4831204;29;20204;-86
2021/01/07 01:11:40;;;;;;;7.72;6.25;;;;;;;;;;4830979;29;20191;-86
2021/01/07 01:14:07;;;;;;;7.20;5.78;;;;;;;;;;4830897;29;20213;-85
2021/01/07 01:16:35;;;;;;;6.55;5.63;;;;;;;;;;4831005;29;20217;-85
2021/01/07 01:19:03;;;;;;;6.47;5.82;;;;;;;;;;4831107;29;20198;-85
2021/01/07 01:21:30;;;;;;;8.00;6.38;;;;;;;;;;4830724;29;20198;-85
2021/01/07 01:23:57;;;;;;;6.78;5.15;;;;;;;;;;4831045;29;20198;-86
2021/01/07 01:26:25;;;;;;;5.97;4.95;;;;;;;;;;4830735;29;20208;-86
2021/01/07 01:28:52;;;;;;;7.05;6.28;;;;;;;;;;4830483;29;20210;-85
2021/01/07 01:31:19;;;;;;;6.30;5.60;;;;;;;;;;4830525;29;20302;-86
2021/01/07 01:33:46;;;;;;;7.32;6.47;;;;;;;;;;4830874;29;20198;-86
2021/01/07 01:36:13;;;;;;;6.88;5.93;;;;;;;;;;4830286;29;20216;-84
2021/01/07 01:38:40;;;;;;;6.72;5.78;;;;;;;;;;4830592;29;20473;-85
2021/01/07 01:41:08;;;;;;;6.80;6.03;;;;;;;;;;4830559;29;20220;-86
2021/01/07 01:43:36;;;;;;;6.38;5.50;;;;;;;;;;4830382;29;20615;-86
2021/01/07 01:46:03;;;;;;;5.82;5.13;;;;;;;;;;4830463;29;20191;-86
2021/01/07 01:48:31;;;;;;;5.38;4.70;;;;;;;;;;4830575;29;20197;-86
2021/01/07 01:50:59;;;;;;;6.57;5.82;;;;;;;;;;4830359;29;20182;-86
2021/01/07 01:53:27;;;;;;;5.40;4.72;;;;;;;;;;4829848;29;20445;-85
2021/01/07 01:55:54;;;;;;;6.65;4.88;;;;;;;;;;4829742;29;20194;-87
2021/01/07 01:58:22;;;;;;;7.05;5.93;;;;;;;;;;4830095;29;20594;-88
2021/01/07 02:00:49;;;;;;;7.97;6.22;;;;;;;;;;4830252;29;20236;-86
2021/01/07 02:03:16;;;;;;;8.35;6.53;;;;;;;;;;4829606;29;20225;-86
2021/01/07 02:05:43;;;;;;;6.80;5.97;;;;;;;;;;4830352;29;20262;-87
2021/01/07 02:08:11;;;;;;;7.15;5.85;;;;;;;;;;4830109;29;20197;-88
2021/01/07 02:10:38;;;;;;;7.45;5.60;;;;;;;;;;4830034;29;20542;-88
2021/01/07 02:13:05;;;;;;;7.13;6.25;;;;;;;;;;4827697;29;20216;-92
2021/01/07 02:15:38;;;;;;;8.30;6.50;;;;;;;;;;4830051;29;20229;-90
2021/01/07 02:18:06;;;;;;;8.63;7.25;;;;;;;;;;4829367;29;20209;-86
2021/01/07 02:20:34;;;;;;;9.85;7.47;;;;;;;;;;4890136;24;20240;-88
2021/01/07 02:23:01;;;;;;;7.75;6.63;;;;;;;;;;4830145;29;20218;-90
2021/01/07 02:25:28;;;;;;;10.82;7.97;;;;;;;;;;4830515;29;20195;-89
2021/01/07 02:27:55;;;;;;;8.38;6.90;;;;;;;;;;4830212;29;20202;-89
2021/01/07 02:30:23;;;;;;;9.07;7.60;;;;;;;;;;4830146;29;20193;-89
2021/01/07 02:32:51;;;;;;;10.63;7.68;;;;;;;;;;4830608;29;20190;-88
2021/01/07 02:35:18;;;;;;;7.82;7.03;;;;;;;;;;4830374;29;20229;-89
2021/01/07 02:37:46;;;;;;;9.68;7.40;;;;;;;;;;4830228;29;20201;-90
2021/01/07 02:40:14;;;;;;;8.55;7.15;;;;;;;;;;4829701;29;20198;-90
2021/01/07 02:42:41;;;;;;;8.90;6.80;;;;;;;;;;4829870;29;20214;-87
2021/01/07 02:45:09;;;;;;;8.90;6.80;;;;;;;;;;4830086;29;20194;-88
2021/01/07 02:47:36;;;;;;;8.52;6.78;;;;;;;;;;4830108;29;20289;-89
2021/01/07 02:50:05;;;;;;;8.50;6.72;;;;;;;;;;4829435;29;20229;-89
2021/01/07 02:52:32;;;;;;;8.77;6.15;;;;;;;;;;4829946;29;20230;-89
2021/01/07 02:55:00;;;;;;;9.10;6.78;;;;;;;;;;4829947;29;20204;-89
2021/01/07 02:57:27;;;;;;;8.43;7.53;;;;;;;;;;4830276;29;20206;-89
2021/01/07 02:59:54;;;;;;;12.00;8.35;;;;;;;;;;4798274;29;20205;-90
2021/01/07 03:02:21;;;;;;;7.72;6.28;;;;;;;;;;4829796;29;20212;-88
2021/01/07 03:04:48;;;;;;;9.48;7.28;;;;;;;;;;4829650;29;20432;-89
2021/01/07 03:07:15;;;;;;;8.73;6.75;;;;;;;;;;4829873;29;20557;-89
2021/01/07 03:09:43;;;;;;;7.78;6.82;;;;;;;;;;4829366;29;20280;-89
2021/01/07 03:12:17;;;;;;;9.25;6.90;;;;;;;;;;4829784;29;20207;-88
2021/01/07 03:14:45;;;;;;;8.05;6.25;;;;;;;;;;4829748;29;20206;-89
2021/01/07 03:17:12;;;;;;;11.32;7.68;;;;;;;;;;4829869;29;20277;-89
2021/01/07 03:19:39;;;;;;;7.72;6.15;;;;;;;;;;4829092;29;20253;-88
2021/01/07 03:22:06;;;;;;;8.70;7.43;;;;;;;;;;4829709;29;20202;-88
2021/01/07 03:24:34;;;;;;;8.27;6.95;;;;;;;;;;4829492;29;20292;-89
2021/01/07 03:27:02;;;;;;;8.95;7.20;;;;;;;;;;4829590;29;20194;-89
2021/01/07 03:29:30;;;;;;;8.32;6.53;;;;;;;;;;4829246;29;20186;-89
2021/01/07 03:31:56;;;;;;;8.63;7.00;;;;;;;;;;4829024;29;20495;-89
2021/01/07 03:34:24;;;;;;;9.15;7.05;;;;;;;;;;4829372;29;20200;-89
2021/01/07 03:36:51;;;;;;;9.35;7.70;;;;;;;;;;4829435;29;20205;-89
2021/01/07 03:39:18;;;;;;;8.70;6.20;;;;;;;;;;4829069;29;20198;-89
2021/01/07 03:41:45;;;;;;;7.70;6.15;;;;;;;;;;4829541;29;20202;-89
2021/01/07 03:44:13;;;;;;;7.95;6.82;;;;;;;;;;4829884;29;20229;-89
2021/01/07 03:46:41;;;;;;;8.82;7.07;;;;;;;;;;4829222;29;20189;-89
2021/01/07 03:49:08;;;;;;;8.82;6.82;;;;;;;;;;4829295;29;20235;-90
2021/01/07 03:51:35;;;;;;;7.85;6.63;;;;;;;;;;4829429;29;20278;-90
2021/01/07 03:54:02;;;;;;;8.30;6.47;;;;;;;;;;4829183;29;20233;-90
2021/01/07 03:56:29;;;;;;;9.05;7.05;;;;;;;;;;4830032;29;20539;-89
2021/01/07 03:58:56;;;;;;;8.38;6.30;;;;;;;;;;4829243;29;20198;-90
2021/01/07 04:01:23;;;;;;;8.13;5.43;;;;;;;;;;4828804;29;20548;-89
2021/01/07 04:03:51;;;;;;;6.10;5.47;;;;;;;;;;4829163;29;20220;-90
2021/01/07 04:06:18;;;;;;;6.80;5.75;;;;;;;;;;4828746;29;20206;-89
2021/01/07 04:08:45;;;;;;;8.95;6.38;;;;;;;;;;4829124;29;20295;-92
2021/01/07 04:11:12;;;;;;;5.80;5.20;;;;;;;;;;4829041;29;20217;-90
2021/01/07 04:13:39;;;;;;;6.60;5.72;;;;;;;;;;4829156;29;20273;-89
2021/01/07 04:16:06;;;;;;;6.38;5.13;;;;;;;;;;4830596;29;20293;-89
2021/01/07 04:18:33;;;;;;;6.50;5.80;;;;;;;;;;4832765;29;20202;-89
2021/01/07 04:21:02;;;;;;;6.40;5.00;;;;;;;;;;4832131;29;20237;-90
2021/01/07 04:23:29;;;;;;;6.63;5.40;;;;;;;;;;4833180;29;20311;-89
2021/01/07 04:25:56;;;;;;;5.45;4.90;;;;;;;;;;4832448;29;20560;-91
2021/01/07 04:28:23;;;;;;;7.18;5.57;;;;;;;;;;4832908;29;20266;-89
2021/01/07 04:30:50;;;;;;;6.05;4.97;;;;;;;;;;4832216;29;20201;-89
2021/01/07 04:33:18;;;;;;;5.25;4.70;;;;;;;;;;4832864;29;20190;-89
2021/01/07 04:35:44;;;;;;;7.72;5.68;;;;;;;;;;4832110;29;20235;-90
2021/01/07 04:38:12;;;;;;;5.55;4.43;;;;;;;;;;4786133;29;20194;-89
2021/01/07 04:40:39;;;;;;;5.13;4.22;;;;;;;;;;4832001;29;20201;-90
2021/01/07 04:43:06;;;;;;;6.45;4.53;;;;;;;;;;4831671;29;20246;-89
2021/01/07 04:45:33;;;;;;;6.05;4.95;;;;;;;;;;4832001;29;20545;-89
2021/01/07 04:48:01;;;;;;;7.32;5.38;;;;;;;;;;4831872;29;20194;-91
2021/01/07 04:50:28;;;;;;;4.95;4.55;;;;;;;;;;4831795;29;20226;-90
2021/01/07 04:52:55;;;;;;;5.05;4.47;;;;;;;;;;4831706;29;20192;-90
2021/01/07 04:55:24;;;;;;;5.95;5.03;;;;;;;;;;4831849;29;20208;-88
2021/01/07 04:57:51;;;;;;;5.57;4.63;;;;;;;;;;4831748;29;20195;-89
2021/01/07 05:00:19;;;;;;;5.97;5.32;;;;;;;;;;4831705;29;20209;-88
2021/01/07 05:02:47;;;;;;;4.90;4.35;;;;;;;;;;4831599;29;20201;-91
2021/01/07 05:05:14;;;;;;;5.35;4.80;;;;;;;;;;4831496;29;20230;-91
2021/01/07 05:07:41;;;;;;;5.28;4.65;;;;;;;;;;4831429;29;20206;-90
2021/01/07 05:10:10;;;;;;;5.90;4.40;;;;;;;;;;4831600;29;20190;-89
2021/01/07 05:12:39;;;;;;;5.63;4.43;;;;;;;;;;4831242;29;20545;-91
2021/01/07 05:15:09;;;;;;;5.20;4.63;;;;;;;;;;4832118;29;20206;-89
2021/01/07 05:17:36;;;;;;;6.53;5.78;;;;;;;;;;4831482;29;20190;-90
2021/01/07 05:20:09;;;;;;;6.65;5.25;;;;;;;;;;4830924;29;20241;-89
2021/01/07 05:22:37;;;;;;;5.20;4.70;;;;;;;;;;4831007;29;20194;-89
2021/01/07 05:25:10;;;;;;;5.20;4.70;;;;;;;;;;4831186;29;20234;-89
2021/01/07 05:27:39;;;;;;;6.22;4.80;;;;;;;;;;4830847;29;20248;-89
2021/01/07 05:30:09;;;;;;;6.20;5.00;;;;;;;;;;4831393;29;20224;-89
2021/01/07 05:32:39;;;;;;;6.75;5.97;;;;;;;;;;4830995;29;20560;-89
2021/01/07 05:35:11;;;;;;;9.02;6.72;;;;;;;;;;4830875;29;20259;-88
2021/01/07 05:37:39;;;;;;;5.07;4.55;;;;;;;;;;4832028;29;20278;-89
2021/01/07 05:40:09;;;;;;;5.90;5.35;;;;;;;;;;4830957;29;20215;-89
2021/01/07 05:42:41;;;;;;;6.35;5.13;;;;;;;;;;4785634;29;20206;-89
2021/01/07 05:45:11;;;;;;;6.40;5.25;;;;;;;;;;4831238;29;20226;-89
2021/01/07 05:47:50;;;;;;;6.72;6.00;;;;;;;;;;4812851;29;20212;-92
2021/01/07 05:50:19;;;;;;;7.80;5.95;;;;;;;;;;4822816;29;20603;-93
2021/01/07 05:52:48;;;;;;;8.48;6.63;;;;;;;;;;4830931;29;20239;-93
2021/01/07 05:55:19;;;;;;;6.95;5.03;;;;;;;;;;4831253;29;20202;-92
2021/01/07 05:57:47;;;;;;;5.75;4.95;;;;;;;;;;4831401;29;20459;-93
2021/01/07 06:00:17;;;;;;;6.03;5.32;;;;;;;;;;4831570;29;20285;-94
2021/01/07 06:02:45;;;;;;;6.03;5.40;;;;;;;;;;4831028;29;20283;-94
2021/01/07 06:05:14;;;;;;;5.22;4.78;;;;;;;;;;4830760;29;20644;-94
2021/01/07 06:07:42;;;;;;;5.55;4.45;;;;;;;;;;4832160;29;20210;-94
2021/01/07 06:10:12;;;;;;;5.47;4.85;;;;;;;;;;4831103;29;20216;-92
2021/01/07 06:12:39;;;;;;;5.03;4.55;;;;;;;;;;4830842;29;20202;-90
2021/01/07 06:15:12;;;;;;;5.20;4.43;;;;;;;;;;4830480;29;20202;-94
2021/01/07 06:17:39;;;;;;;6.97;5.43;;;;;;;;;;4830786;29;20217;-93
2021/01/07 06:20:13;;;;;;;4.85;4.35;;;;;;;;;;4774734;30;20228;-94
2021/01/07 06:22:43;;;;;;;5.18;4.68;;;;;;;;;;4776888;30;20200;-94
2021/01/07 06:25:12;;;;;;;5.18;4.60;;;;;;;;;;4775949;30;20539;-95
2021/01/07 06:27:42;;;;;;;7.78;5.88;;;;;;;;;;4775960;30;20207;-95
2021/01/07 06:30:46;;;;;;;8.13;5.40;;;;;;;;;;4776109;30;20208;-95
2021/01/07 06:33:15;;;;;;;6.63;5.30;;;;;;;;;;4775658;30;20215;-94
2021/01/07 06:35:46;;;;;;;7.00;5.30;;;;;;;;;;4775771;30;20227;-95
2021/01/07 06:39:10;;;;;;;6.15;5.22;;;;;;;;;;4801669;29;20214;-94
2021/01/07 06:41:53;;;;;;;5.63;5.05;;;;;;;;;;4840434;29;20210;-94
2021/01/07 06:44:21;;;;;;;6.30;5.68;;;;;;;;;;4833569;29;20226;-94
2021/01/07 06:46:50;;;;;;;5.53;4.95;;;;;;;;;;4833356;29;20329;-95
2021/01/07 06:49:21;;;;;;;6.82;5.28;;;;;;;;;;4834732;29;20245;-95
2021/01/07 06:52:06;;;;;;;6.70;6.10;;;;;;;;;;4833358;29;20202;-95
2021/01/07 06:54:36;;;;;;;7.13;6.43;;;;;;;;;;4834195;29;20226;-95
2021/01/07 06:57:06;;;;;;;8.13;5.53;;;;;;;;;;4833605;29;20206;-94
2021/01/07 06:59:36;;;;;;;6.38;5.32;;;;;;;;;;4835279;29;20289;-95
2021/01/07 07:02:06;;;;;;;5.13;4.57;;;;;;;;;;4835713;29;20206;-94
2021/01/07 07:04:43;;;;;;;7.03;5.80;;;;;;;;;;4837639;29;20239;-95
2021/01/07 07:07:55;;;;;;;6.65;5.10;;;;;;;;;;4832055;29;20313;-95
2021/01/07 07:11:08;;;;;;;8.15;5.63;;;;;;;;;;4832121;29;20296;-95
2021/01/07 07:13:44;;;;;;;6.07;5.38;;;;;;;;;;4830158;29;20364;-95
2021/01/07 07:16:16;;;;;;;7.18;5.78;;;;;;;;;;4832222;29;20214;-96
2021/01/07 07:18:44;;;;;;;8.13;5.13;;;;;;;;;;4832836;29;20564;-94
2021/01/07 07:21:17;;;;;;;5.88;4.88;;;;;;;;;;4833073;29;20242;-95
2021/01/07 07:23:46;;;;;;;6.47;5.78;;;;;;;;;;4832817;29;20214;-94
2021/01/07 07:26:15;;;;;;;6.93;4.95;;;;;;;;;;4832000;29;20342;-95
2021/01/07 07:28:47;;;;;;;5.22;4.70;;;;;;;;;;4836028;29;20281;-95
2021/01/07 07:31:15;;;;;;;6.32;5.30;;;;;;;;;;4837157;29;20209;-95
2021/01/07 07:33:46;;;;;;;6.57;4.88;;;;;;;;;;4836103;29;20217;-96
2021/01/07 07:36:39;;;;;;;5.53;4.80;;;;;;;;;;4835334;29;20293;-95
2021/01/07 07:39:36;;;;;;;6.07;5.35;;;;;;;;;;4840845;29;20277;-95
2021/01/07 07:42:31;;;;;;;6.38;4.82;;;;;;;;;;4827349;29;20235;-95
2021/01/07 07:44:59;;;;;;;5.30;4.47;;;;;;;;;;4843055;29;20320;-94
2021/01/07 07:47:26;;;;;;;6.13;4.88;;;;;;;;;;4830158;29;20213;-95
2021/01/07 07:49:58;;;;;;;5.40;4.60;;;;;;;;;;4831353;29;20225;-94
2021/01/07 07:52:26;;;;;;;6.90;5.45;;;;;;;;;;4833734;29;20289;-94
2021/01/07 07:55:01;;;;;;;5.97;5.38;;;;;;;;;;4833633;29;20281;-95
2021/01/07 07:57:28;;;;;;;6.45;4.80;;;;;;;;;;4833871;29;20305;-95
2021/01/07 08:00:10;;;;;;;5.72;4.97;;;;;;;;;;4833959;29;20202;-94
2021/01/07 08:02:37;;;;;;;7.22;5.40;;;;;;;;;;4833627;29;20272;-96
2021/01/07 08:05:08;;;;;;;6.03;4.68;;;;;;;;;;4834001;29;20612;-95
2021/01/07 08:07:35;;;;;;;6.05;4.10;;;;;;;;;;4833740;29;20218;-95
2021/01/07 08:10:09;;;;;;;4.85;4.28;;;;;;;;;;4834401;29;20216;-93
2021/01/07 08:12:37;;;;;;;7.45;5.68;;;;;;;;;;4834482;29;20202;-95
2021/01/07 08:15:07;;;;;;;5.68;4.78;;;;;;;;;;4834553;29;20198;-95
2021/01/07 08:17:34;;;;;;;4.85;4.10;;;;;;;;;;4834884;29;20201;-95
2021/01/07 08:20:01;;;;;;;5.07;4.43;;;;;;;;;;4834476;29;20276;-94
2021/01/07 08:22:30;;;;;;;4.60;4.13;;;;;;;;;;4834030;29;20248;-94
2021/01/07 08:24:57;;;;;;;5.68;4.97;;;;;;;;;;4834061;29;20325;-95
2021/01/07 08:27:28;;;;;;;5.85;4.47;;;;;;;;;;4833911;29;20216;-96
2021/01/07 08:30:00;;;;;;;5.95;4.80;;;;;;;;;;4833958;29;20315;-95
2021/01/07 08:32:41;;;;;;;6.53;5.47;;;;;;;;;;4836444;29;20213;-95
2021/01/07 08:35:13;;;;;;;5.75;4.82;;;;;;;;;;4837896;29;20232;-95
2021/01/07 08:45:36;;;;;;;5.95;4.88;;;;;;;;;;5656103;24;20294;-94
2021/01/07 08:48:14;;;;;;;6.18;5.10;;;;;;;;;;4837019;29;20217;-94
2021/01/07 08:50:41;;;;;;;5.65;4.78;;;;;;;;;;4836269;29;20240;-95
2021/01/07 08:53:13;;;;;;;6.70;5.22;;;;;;;;;;4837117;29;20290;-95
2021/01/07 08:55:51;;;;;;;6.07;4.90;;;;;;;;;;4837971;29;20273;-94
2021/01/07 08:58:24;;;;;;;8.02;5.53;;;;;;;;;;4837763;29;20210;-94
2021/01/07 09:00:54;;;;;;;7.38;5.55;;;;;;;;;;4837687;29;20221;-94
2021/01/07 09:03:22;;;;;;;5.93;4.75;;;;;;;;;;4838285;29;20210;-95
2021/01/07 09:31:26;;;;;;;6.82;5.65;;;;;;;;;;5504300;24;20241;-93
2021/01/07 09:33:56;;;;;;;6.20;5.35;;;;;;;;;;4838167;29;20495;-94
2021/01/07 09:36:27;;;;;;;9.52;6.53;;;;;;;;;;4840692;29;20239;-95
2021/01/07 09:38:57;;;;;;;7.28;6.03;;;;;;;;;;4843178;29;20220;-94
2021/01/07 09:41:26;;;;;;;6.60;5.78;;;;;;;;;;4843523;29;20206;-93
2021/01/07 09:44:20;;;;;;;7.38;6.00;;;;;;;;;;4842858;29;20206;-94
2021/01/07 10:34:46;;;;;;;16.13;7.53;;;;;;;;;;5056474;24;20237;-94
2021/01/07 10:37:19;;;;;;;8.02;6.85;;;;;;;;;;4838904;29;20198;-94
2021/01/07 10:39:54;;;;;;;10.18;7.47;;;;;;;;;;4839259;29;20205;-94
2021/01/07 10:43:01;;;;;;;9.18;6.70;;;;;;;;;;4839713;29;20217;-94
2021/01/07 10:45:28;;;;;;;8.43;7.05;;;;;;;;;;4837314;29;20225;-93
2021/01/07 10:48:00;;;;;;;7.10;6.13;;;;;;;;;;4837947;29;20247;-94
2021/01/07 10:50:41;;;;;;;8.85;7.43;;;;;;;;;;4839198;29;20226;-94
2021/01/07 10:54:16;;;;;;;9.90;6.65;;;;;;;;;;4823803;29;20479;-94
2021/01/07 10:57:50;;;;;;;8.90;7.78;;;;;;;;;;4838335;29;20213;-95
2021/01/07 11:00:43;;;;;;;10.02;6.75;;;;;;;;;;4782891;30;20211;-94
2021/01/07 11:04:22;;;;;;;10.35;7.07;;;;;;;;;;4784526;29;20271;-93
2021/01/07 11:09:39;;;;;;;10.23;7.47;;;;;;;;;;4919941;24;20244;-94
2021/01/07 11:12:33;;;;;;;9.07;7.32;;;;;;;;;;4838152;29;20269;-95
2021/01/07 11:15:11;;;;;;;9.63;6.88;;;;;;;;;;4820640;29;20217;-95
2021/01/07 11:17:47;;;;;;;10.80;6.88;;;;;;;;;;4778360;30;20279;-95
2021/01/07 11:20:22;;;;;;;10.57;7.68;;;;;;;;;;4781103;30;20335;-95
2021/01/07 11:22:55;;;;;;;9.82;8.35;;;;;;;;;;4781558;30;20272;-95
2021/01/07 11:25:25;;;;;;;11.35;8.38;;;;;;;;;;4777563;30;20219;-94
2021/01/07 11:28:00;;;;;;;10.27;7.70;;;;;;;;;;4779128;30;20271;-95
2021/01/07 11:30:28;;;;;;;9.50;8.15;;;;;;;;;;4777434;30;20210;-94
2021/01/07 11:33:04;;;;;;;10.13;7.85;;;;;;;;;;4789927;30;20219;-95
2021/01/07 11:35:33;;;;;;;9.20;7.43;;;;;;;;;;4823093;29;20212;-95
2021/01/07 11:41:51;;;;;;;11.10;8.48;;;;;;;;;;4802572;29;20203;-94
2021/01/07 11:52:10;;;;;;;9.25;7.55;;;;;;;;;;5589158;24;20961;-94
2021/01/07 11:54:40;;;;;;;11.65;7.95;;;;;;;;;;4833135;29;20220;-95
2021/01/07 11:57:10;;;;;;;9.00;7.43;;;;;;;;;;4836687;29;20194;-94
2021/01/07 11:59:52;;;;;;;10.52;7.78;;;;;;;;;;4841218;29;20273;-96
2021/01/07 12:02:19;;;;;;;11.25;8.45;;;;;;;;;;4820578;29;20202;-89
2021/01/07 12:04:46;;;;;;;9.18;7.47;;;;;;;;;;4829279;29;20202;-95
2021/01/07 12:07:37;;;;;;;10.00;7.60;;;;;;;;;;4829400;29;20239;-92
2021/01/07 12:10:06;;;;;;;10.98;8.38;;;;;;;;;;4792159;30;20295;-92
2021/01/07 12:12:50;;;;;;;10.80;8.68;;;;;;;;;;4792155;30;20219;-93
2021/01/07 12:15:18;;;;;;;9.25;7.55;;;;;;;;;;4791819;30;20236;-92
2021/01/07 12:17:45;;;;;;;8.95;7.78;;;;;;;;;;4792001;30;20276;-92
2021/01/07 12:20:13;;;;;;;9.27;7.43;;;;;;;;;;4773582;30;20301;-93
2021/01/07 12:22:40;;;;;;;10.95;8.15;;;;;;;;;;4774230;30;20212;-93
2021/01/07 12:25:08;;;;;;;10.65;9.43;;;;;;;;;;4773481;30;20215;-89
2021/01/07 12:27:36;;;;;;;9.50;7.20;;;;;;;;;;4782854;29;20234;-93
2021/01/07 12:30:05;;;;;;;9.00;7.07;;;;;;;;;;4811176;29;20466;-93
2021/01/07 12:32:34;;;;;;;9.98;7.55;;;;;;;;;;4815933;29;20201;-90
2021/01/07 12:35:07;;;;;;;9.35;7.68;;;;;;;;;;4847313;29;20216;-91
2021/01/07 12:37:45;;;;;;;11.13;8.25;;;;;;;;;;4849555;29;20276;-89
2021/01/07 12:40:15;;;;;;;10.10;8.35;;;;;;;;;;4850235;29;20605;-89
2021/01/07 12:42:45;;;;;;;8.85;6.93;;;;;;;;;;4841186;29;20210;-89
2021/01/07 12:45:14;;;;;;;9.07;7.40;;;;;;;;;;4831011;29;20194;-90
2021/01/07 12:47:41;;;;;;;8.63;7.75;;;;;;;;;;4831574;29;20293;-90
2021/01/07 12:50:11;;;;;;;9.35;7.95;;;;;;;;;;4831124;29;20234;-89
2021/01/07 12:52:38;;;;;;;9.88;8.48;;;;;;;;;;4831539;29;20241;-91
2021/01/07 12:55:09;;;;;;;11.57;7.60;;;;;;;;;;4831415;29;20573;-89
2021/01/07 12:57:41;;;;;;;8.75;7.40;;;;;;;;;;4831535;29;20190;-90
2021/01/07 13:00:13;;;;;;;11.45;8.75;;;;;;;;;;4831338;29;20197;-90
2021/01/07 13:02:48;;;;;;;9.63;7.53;;;;;;;;;;4831878;29;20247;-89
2021/01/07 13:05:22;;;;;;;8.50;7.57;;;;;;;;;;4831547;29;20185;-90
2021/01/07 13:07:49;;;;;;;7.80;6.97;;;;;;;;;;4831267;29;20615;-91
2021/01/07 13:10:17;;;;;;;10.48;8.02;;;;;;;;;;4831594;29;20259;-91
2021/01/07 13:12:44;;;;;;;10.18;6.85;;;;;;;;;;4831520;29;20198;-90
2021/01/07 13:15:14;;;;;;;9.45;7.22;;;;;;;;;;4832226;29;20460;-90
2021/01/07 13:17:43;;;;;;;12.32;8.65;;;;;;;;;;4831497;29;20198;-91
2021/01/07 13:20:11;;;;;;;9.88;8.48;;;;;;;;;;4831873;29;20274;-91
2021/01/07 13:22:40;;;;;;;10.45;8.45;;;;;;;;;;4831167;29;20194;-90
2021/01/07 13:25:09;;;;;;;9.95;7.60;;;;;;;;;;4831676;29;20190;-90
2021/01/07 13:27:37;;;;;;;10.25;7.20;;;;;;;;;;4831771;29;20329;-91
2021/01/07 13:30:06;;;;;;;8.60;7.07;;;;;;;;;;4831292;29;20197;-91
2021/01/07 13:32:34;;;;;;;8.05;7.20;;;;;;;;;;4815361;29;20210;-90
2021/01/07 13:35:03;;;;;;;8.30;7.03;;;;;;;;;;4831329;29;20190;-91
2021/01/07 13:37:30;;;;;;;8.55;7.50;;;;;;;;;;4831082;29;20201;-91
2021/01/07 13:39:57;;;;;;;8.50;6.93;;;;;;;;;;4832383;29;20204;-90
2021/01/07 13:42:24;;;;;;;10.10;7.32;;;;;;;;;;4833095;29;20228;-90
2021/01/07 13:44:57;;;;;;;9.38;7.65;;;;;;;;;;4831682;29;20221;-91
2021/01/07 13:47:27;;;;;;;7.13;6.07;;;;;;;;;;4830619;29;20604;-91
2021/01/07 13:49:59;;;;;;;6.97;5.82;;;;;;;;;;4830942;29;20233;-90
2021/01/07 13:52:27;;;;;;;8.05;6.22;;;;;;;;;;4830837;29;20237;-90
2021/01/07 13:54:54;;;;;;;7.88;6.43;;;;;;;;;;4830932;29;20190;-90
2021/01/07 13:57:21;;;;;;;7.50;6.50;;;;;;;;;;4830895;29;20200;-91
2021/01/07 13:59:48;;;;;;;10.88;8.18;;;;;;;;;;4830719;29;20213;-91
2021/01/07 14:02:16;;;;;;;8.52;7.50;;;;;;;;;;4830264;29;20206;-90
2021/01/07 14:04:43;;;;;;;7.15;6.35;;;;;;;;;;4830492;29;20194;-91
2021/01/07 14:07:15;;;;;;;8.48;6.70;;;;;;;;;;4830784;29;20550;-90
2021/01/07 14:09:45;;;;;;;6.55;5.85;;;;;;;;;;4830798;29;20255;-90
2021/01/07 14:12:15;;;;;;;10.93;6.40;;;;;;;;;;4830421;29;20274;-90
2021/01/07 14:14:42;;;;;;;6.55;5.72;;;;;;;;;;4830598;29;20275;-91
2021/01/07 14:17:09;;;;;;;7.63;6.70;;;;;;;;;;4830608;29;20204;-90
2021/01/07 14:19:37;;;;;;;6.93;5.35;;;;;;;;;;4830408;29;20214;-90
2021/01/07 14:22:05;;;;;;;7.05;6.00;;;;;;;;;;4831226;29;20262;-90
2021/01/07 14:24:34;;;;;;;6.70;4.97;;;;;;;;;;4830540;29;20501;-89
2021/01/07 14:27:10;;;;;;;5.80;5.05;;;;;;;;;;4830388;29;20218;-91
2021/01/07 14:29:38;;;;;;;6.57;4.55;;;;;;;;;;4830250;29;20200;-91
2021/01/07 14:32:06;;;;;;;6.53;5.80;;;;;;;;;;4830065;29;20476;-90
2021/01/07 14:34:38;;;;;;;5.85;4.80;;;;;;;;;;4830184;29;20282;-90
2021/01/07 14:37:05;;;;;;;5.97;5.43;;;;;;;;;;4830784;29;20216;-90
2021/01/07 14:39:34;;;;;;;6.00;5.30;;;;;;;;;;4829991;29;20202;-91
2021/01/07 14:42:04;;;;;;;5.63;5.03;;;;;;;;;;4830396;29;20197;-91
2021/01/07 14:44:31;;;;;;;6.60;5.90;;;;;;;;;;4830221;29;20197;-91
2021/01/07 14:47:03;;;;;;;7.38;5.88;;;;;;;;;;4830641;29;20467;-91
2021/01/07 14:49:32;;;;;;;6.13;5.22;;;;;;;;;;4829964;29;20238;-90
2021/01/07 14:52:00;;;;;;;7.32;5.70;;;;;;;;;;4830463;29;20197;-90
2021/01/07 14:54:34;;;;;;;6.07;5.47;;;;;;;;;;4829891;29;20242;-91
2021/01/07 14:57:10;;;;;;;6.63;5.57;;;;;;;;;;4830019;29;20185;-91
2021/01/07 14:59:42;;;;;;;9.05;6.85;;;;;;;;;;4829511;29;20190;-91
2021/01/07 15:02:32;;;;;;;6.65;6.00;;;;;;;;;;4830024;29;20201;-90
2021/01/07 15:05:07;;;;;;;6.78;5.47;;;;;;;;;;4829893;29;20203;-90
2021/01/07 15:08:00;;;;;;;7.05;6.00;;;;;;;;;;4829794;29;20229;-91
2021/01/07 15:10:29;;;;;;;7.82;5.70;;;;;;;;;;4830259;29;20201;-92
2021/01/07 15:13:05;;;;;;;8.52;5.80;;;;;;;;;;4829969;29;20201;-91
2021/01/07 15:15:41;;;;;;;6.70;5.75;;;;;;;;;;4830095;29;20185;-91
2021/01/07 15:18:09;;;;;;;5.80;4.97;;;;;;;;;;4829625;29;20481;-90
2021/01/07 15:20:40;;;;;;;6.63;6.00;;;;;;;;;;4829472;29;20519;-90
2021/01/07 15:23:50;;;;;;;7.93;5.95;;;;;;;;;;4829690;29;20510;-90
2021/01/07 15:26:26;;;;;;;7.25;5.50;;;;;;;;;;4829600;29;20233;-91
2021/01/07 15:29:00;;;;;;;8.27;5.85;;;;;;;;;;4829552;29;20224;-90
2021/01/07 15:31:32;;;;;;;7.10;5.70;;;;;;;;;;4830149;29;20194;-89
2021/01/07 15:34:07;;;;;;;6.68;5.97;;;;;;;;;;4829897;29;20265;-90
2021/01/07 15:37:04;;;;;;;10.23;6.60;;;;;;;;;;4829554;29;20205;-90
2021/01/07 15:40:22;;;;;;;6.18;5.30;;;;;;;;;;4829832;29;20200;-91
2021/01/07 15:43:38;;;;;;;7.07;5.78;;;;;;;;;;4774069;30;20199;-90
2021/01/07 15:46:52;;;;;;;7.03;6.32;;;;;;;;;;4774038;30;20192;-90
2021/01/07 15:49:30;;;;;;;7.80;5.80;;;;;;;;;;4652054;30;20209;-90
2021/01/07 15:52:15;;;;;;;8.30;7.38;;;;;;;;;;4652244;30;20210;-90
2021/01/07 15:55:14;;;;;;;8.05;6.63;;;;;;;;;;4652263;30;20216;-89
2021/01/07 15:58:33;;;;;;;6.88;6.18;;;;;;;;;;4652126;30;20216;-91
2021/01/07 16:01:00;;;;;;;10.35;6.35;;;;;;;;;;4652330;30;20213;-91
2021/01/07 16:03:37;;;;;;;8.15;6.35;;;;;;;;;;4652228;30;20209;-90
2021/01/07 16:06:12;;;;;;;7.90;7.10;;;;;;;;;;4651983;30;20303;-90
2021/01/07 16:08:40;;;;;;;8.77;7.85;;;;;;;;;;4651955;30;20216;-91
2021/01/07 16:11:07;;;;;;;8.05;7.22;;;;;;;;;;4652315;30;20489;-91
2021/01/07 16:13:35;;;;;;;8.60;7.55;;;;;;;;;;4655462;30;20312;-91
2021/01/07 16:16:02;;;;;;;8.05;7.03;;;;;;;;;;4655377;30;20205;-91
2021/01/07 16:18:29;;;;;;;10.00;7.75;;;;;;;;;;4655390;30;20212;-90
2021/01/07 16:20:56;;;;;;;7.57;6.63;;;;;;;;;;4697888;30;20245;-89
2021/01/07 16:23:26;;;;;;;9.25;7.05;;;;;;;;;;4706788;30;20462;-90
2021/01/07 16:26:05;;;;;;;9.73;7.55;;;;;;;;;;4764805;29;20281;-90
2021/01/07 16:28:34;;;;;;;9.80;7.47;;;;;;;;;;4832516;29;20206;-90
2021/01/07 16:31:02;;;;;;;10.95;7.53;;;;;;;;;;4832182;29;20186;-90
2021/01/07 16:33:31;;;;;;;8.43;7.55;;;;;;;;;;4832884;29;20210;-90
2021/01/07 16:35:57;;;;;;;10.35;6.68;;;;;;;;;;4832424;29;20289;-90
2021/01/07 16:38:25;;;;;;;9.73;7.60;;;;;;;;;;4832432;29;20200;-90
2021/01/07 16:40:58;;;;;;;9.55;7.72;;;;;;;;;;4831874;29;20190;-90
2021/01/07 16:43:29;;;;;;;8.48;7.43;;;;;;;;;;4831990;29;20591;-91